createdAt,value
2023-10-18T00:00:25.188Z,10.40
2023-10-18T00:05:50.406Z,15.10
2023-10-18T00:10:54.465Z,14.40
2023-10-18T00:16:09.904Z,10.70
2023-10-18T00:21:13.330Z,10.90
2023-10-18T00:26:16.044Z,8.80
2023-10-18T00:31:28.604Z,11.20
2023-10-18T00:36:33.593Z,11.90
2023-10-18T00:41:44.260Z,11.30
2023-10-18T00:46:58.519Z,10.40
2023-10-18T00:52:02.334Z,15.50
2023-10-18T00:57:10.104Z,11.90
2023-10-18T01:02:21.603Z,10.80
2023-10-18T01:07:25.308Z,11.30
2023-10-18T01:12:30.374Z,10.10
2023-10-18T01:17:44.036Z,8.60
2023-10-18T01:22:47.631Z,13.90
2023-10-18T01:27:50.801Z,7.10
2023-10-18T01:32:55.196Z,7.90
2023-10-18T01:38:04.654Z,10.70
2023-10-18T01:43:13.996Z,12.20
2023-10-18T01:48:19.538Z,12.80
2023-10-18T01:53:24.717Z,10.70
2023-10-18T01:58:28.035Z,7.40
2023-10-18T02:03:35.913Z,16.70
2023-10-18T02:08:41.185Z,11.60
2023-10-18T02:13:43.807Z,9.10
2023-10-18T02:18:50.990Z,10.10
2023-10-18T02:23:58.317Z,12.40
2023-10-18T02:29:15.725Z,14.40
2023-10-18T02:34:29.987Z,18.90
2023-10-18T02:39:42.420Z,15.20
2023-10-18T02:44:51.805Z,14.20
2023-10-18T02:49:54.584Z,12.50
2023-10-18T02:55:10.191Z,11.30
2023-10-18T03:00:18.295Z,9.10
2023-10-18T03:05:21.765Z,14.00
2023-10-18T03:10:34.283Z,12.50
2023-10-18T03:15:59.204Z,11.80
2023-10-18T03:21:21.945Z,15.30
2023-10-18T03:26:35.987Z,11.30
2023-10-18T03:31:45.184Z,15.80
2023-10-18T03:36:53.196Z,17.20
2023-10-18T03:42:03.103Z,13.00
2023-10-18T03:47:15.689Z,9.70
2023-10-18T03:52:18.523Z,9.90
2023-10-18T03:57:31.895Z,13.60
2023-10-18T04:02:38.037Z,16.50
2023-10-18T04:07:43.544Z,13.80
2023-10-18T04:12:48.634Z,13.00
2023-10-18T04:18:04.119Z,14.40
2023-10-18T04:23:29.421Z,10.00
2023-10-18T04:28:39.622Z,10.40
2023-10-18T04:33:46.961Z,13.60
2023-10-18T04:38:53.055Z,9.40
2023-10-18T04:44:07.030Z,7.90
2023-10-18T04:49:09.992Z,10.50
2023-10-18T04:54:18.009Z,9.90
2023-10-18T04:59:57.020Z,11.00
2023-10-18T05:05:05.328Z,9.60
2023-10-18T05:10:21.800Z,8.10
2023-10-18T05:15:30.499Z,10.20
2023-10-18T05:20:43.121Z,7.70
2023-10-18T05:25:47.903Z,11.90
2023-10-18T05:31:24.617Z,9.20
2023-10-18T05:36:30.956Z,12.90
2023-10-18T05:41:46.696Z,9.80
2023-10-18T05:46:52.138Z,10.10
2023-10-18T05:52:10.246Z,12.30
2023-10-18T05:57:19.522Z,11.60
2023-10-18T06:08:15.812Z,10.00
2023-10-18T06:13:22.347Z,11.90
2023-10-18T06:18:32.428Z,9.50
2023-10-18T06:41:46.099Z,12.50
2023-10-18T06:46:51.291Z,11.10
2023-10-18T06:57:40.037Z,10.70
2023-10-18T07:02:45.740Z,9.00
2023-10-18T07:14:30.235Z,8.70
2023-10-18T07:19:49.391Z,14.90
2023-10-18T07:30:52.006Z,12.10
2023-10-18T07:35:56.281Z,8.00
2023-10-18T07:41:19.852Z,10.00
2023-10-18T07:46:29.261Z,9.00
2023-10-18T07:51:44.429Z,7.40
2023-10-18T07:56:50.649Z,7.80
2023-10-18T08:01:55.695Z,9.00
2023-10-18T08:06:58.572Z,7.50
2023-10-18T08:12:07.433Z,8.50
2023-10-18T08:17:10.643Z,8.40
2023-10-18T08:22:15.191Z,7.10
2023-10-18T08:27:19.294Z,7.30
2023-10-18T08:32:31.396Z,7.20
2023-10-18T08:44:17.906Z,7.80
2023-10-18T08:49:33.641Z,9.10
2023-10-18T08:54:42.252Z,8.50
2023-10-18T08:59:49.811Z,5.90
2023-10-18T09:05:00.398Z,5.70
2023-10-18T09:10:06.363Z,6.80
2023-10-18T09:15:45.136Z,7.00
2023-10-18T09:21:09.971Z,12.60
2023-10-18T09:26:19.787Z,10.20
2023-10-18T09:31:27.628Z,8.30
2023-10-18T09:36:31.263Z,9.30
2023-10-18T09:41:34.186Z,7.80
2023-10-18T09:46:41.128Z,16.20
2023-10-18T09:51:54.602Z,10.40
2023-10-18T09:57:00.605Z,9.40
2023-10-18T10:02:16.678Z,7.70
2023-10-18T10:07:44.155Z,6.80
2023-10-18T10:12:52.389Z,9.50
2023-10-18T10:18:02.099Z,8.70
2023-10-18T10:23:16.492Z,8.20
2023-10-18T10:29:06.441Z,10.30
2023-10-18T10:34:25.728Z,7.50
2023-10-18T10:39:35.777Z,6.90
2023-10-18T10:45:27.321Z,8.90
2023-10-18T10:50:43.806Z,7.40
2023-10-18T10:55:57.478Z,9.00
2023-10-18T11:01:01.049Z,8.00
2023-10-18T11:06:07.417Z,7.80
2023-10-18T11:11:27.465Z,9.70
2023-10-18T11:16:35.009Z,9.90
2023-10-18T11:21:43.216Z,8.80
2023-10-18T11:26:51.971Z,10.30
2023-10-18T11:32:00.377Z,8.20
2023-10-18T12:11:27.064Z,7.30
2023-10-18T12:16:35.919Z,10.00
2023-10-18T12:42:47.866Z,5.90
2023-10-18T12:47:53.019Z,6.70
2023-10-18T12:53:20.853Z,8.20
2023-10-18T12:58:32.793Z,12.90
2023-10-18T13:03:38.912Z,6.30
2023-10-18T13:09:07.189Z,7.30
2023-10-18T13:14:16.853Z,8.50
2023-10-18T13:19:20.413Z,9.80
2023-10-18T13:24:24.025Z,7.80
2023-10-18T13:29:28.060Z,8.70
2023-10-18T13:35:05.364Z,23.20
2023-10-18T13:40:19.946Z,13.30
2023-10-18T13:45:29.860Z,10.60
2023-10-18T13:50:43.245Z,19.60
2023-10-18T13:55:46.257Z,10.80
2023-10-18T14:00:52.599Z,14.60
2023-10-18T14:05:59.144Z,12.60
2023-10-18T14:11:02.061Z,13.30
2023-10-18T14:16:13.519Z,15.30
2023-10-18T14:21:22.961Z,19.60
2023-10-18T14:26:26.086Z,17.30
2023-10-18T14:31:31.193Z,18.80
2023-10-18T14:36:34.793Z,14.80
2023-10-18T14:41:40.422Z,13.50
2023-10-18T14:46:46.102Z,10.40
2023-10-18T14:51:52.387Z,10.30
2023-10-18T14:56:57.267Z,8.10
2023-10-18T15:02:00.886Z,11.90
2023-10-18T15:07:05.943Z,15.80
2023-10-18T15:12:11.765Z,16.10
2023-10-18T15:17:15.987Z,16.40
2023-10-18T15:22:21.830Z,20.20
2023-10-18T15:27:27.391Z,16.80
2023-10-18T15:32:32.462Z,22.40
2023-10-18T15:37:37.131Z,8.30
2023-10-18T15:42:39.743Z,9.80
2023-10-18T15:47:44.163Z,17.00
2023-10-18T15:52:49.410Z,12.40
2023-10-18T15:57:52.261Z,19.10
2023-10-18T16:02:56.230Z,9.10
2023-10-18T16:07:59.254Z,7.00
2023-10-18T16:13:05.947Z,6.30
2023-10-18T16:18:11.463Z,6.40
2023-10-18T16:23:16.602Z,7.70
2023-10-18T16:28:19.433Z,8.30
2023-10-18T16:33:23.127Z,16.60
2023-10-18T16:38:27.261Z,13.00
2023-10-18T16:43:29.957Z,12.00
2023-10-18T16:48:44.190Z,10.70
2023-10-18T16:53:47.819Z,20.20
2023-10-18T16:58:53.431Z,70.80
2023-10-18T17:03:57.803Z,80.00
2023-10-18T17:09:03.899Z,58.70
2023-10-18T17:14:07.875Z,53.70
2023-10-18T17:19:18.326Z,29.50
2023-10-18T17:24:23.802Z,21.00
2023-10-18T17:29:33.921Z,23.20
2023-10-18T17:34:37.922Z,17.20
2023-10-18T17:39:40.673Z,12.60
2023-10-18T17:44:45.398Z,17.60
2023-10-18T17:49:50.966Z,12.90
2023-10-18T17:54:53.637Z,12.60
2023-10-18T18:00:07.657Z,12.30
2023-10-18T18:05:13.900Z,13.80
2023-10-18T18:10:19.706Z,16.80
2023-10-18T18:15:22.550Z,17.70
2023-10-18T18:20:25.653Z,14.60
2023-10-18T18:25:33.306Z,15.10
2023-10-18T18:30:36.511Z,13.90
2023-10-18T18:35:40.383Z,10.80
2023-10-18T18:40:49.465Z,14.00
2023-10-18T18:45:53.515Z,15.10
2023-10-18T18:50:56.373Z,12.20
2023-10-18T18:56:00.720Z,15.20
2023-10-18T19:01:09.023Z,15.50
2023-10-18T19:06:14.498Z,16.30
2023-10-18T19:11:25.371Z,19.70
2023-10-18T19:16:28.474Z,18.50
2023-10-18T19:21:32.657Z,18.50
2023-10-18T19:26:38.628Z,21.70
2023-10-18T19:31:41.752Z,17.10
2023-10-18T19:36:44.493Z,18.30
2023-10-18T19:41:51.661Z,17.50
2023-10-18T19:47:25.515Z,13.70
2023-10-18T19:52:24.359Z,18.30
2023-10-18T19:57:29.466Z,17.50
2023-10-18T20:02:32.238Z,22.60
2023-10-18T20:07:35.565Z,30.50
2023-10-18T20:12:38.223Z,24.60
2023-10-18T20:17:43.701Z,23.60
2023-10-18T20:22:50.222Z,21.40
2023-10-18T20:27:56.623Z,31.20
2023-10-18T20:33:00.645Z,20.50
2023-10-18T20:38:07.450Z,25.30
2023-10-18T20:43:12.497Z,21.00
2023-10-18T20:48:20.223Z,25.30
2023-10-18T20:53:24.484Z,22.20
2023-10-18T20:58:28.800Z,19.60
2023-10-18T21:03:37.635Z,18.20
2023-10-18T21:08:42.997Z,19.20
2023-10-18T21:13:47.410Z,18.30
2023-10-18T21:18:53.030Z,22.40
2023-10-18T21:23:58.385Z,18.30
2023-10-18T21:29:01.826Z,21.70
2023-10-18T21:34:04.859Z,15.60
2023-10-18T21:39:10.918Z,12.90
2023-10-18T21:44:14.754Z,14.90
2023-10-18T21:49:20.041Z,16.60
2023-10-18T21:54:25.608Z,17.70
2023-10-18T21:59:31.693Z,17.10
2023-10-18T22:04:36.977Z,21.00
2023-10-18T22:09:45.499Z,29.90
2023-10-18T22:14:51.208Z,23.40
2023-10-18T22:20:02.314Z,20.60
2023-10-18T22:25:21.902Z,21.70
2023-10-18T22:30:31.851Z,21.20
2023-10-18T22:35:35.913Z,23.30
2023-10-18T22:40:39.683Z,20.10
2023-10-18T22:46:06.740Z,21.00
2023-10-18T22:51:09.521Z,20.60
2023-10-18T22:56:30.766Z,20.00
2023-10-18T23:01:37.482Z,20.00
2023-10-18T23:06:42.386Z,21.00
2023-10-18T23:12:12.351Z,24.30
2023-10-18T23:17:18.055Z,25.60
2023-10-18T23:22:36.812Z,26.10
2023-10-18T23:27:58.218Z,29.60
2023-10-18T23:33:08.541Z,32.00
2023-10-18T23:38:37.878Z,26.50
2023-10-18T23:43:40.857Z,32.20
2023-10-18T23:48:47.753Z,36.40
2023-10-18T23:53:52.869Z,35.30
2023-10-18T23:58:56.182Z,21.90
